AirNav   Pilot Hours Calculator
 
 587 users online  

5AL7 John H Hataway Airport
Kinston, Alabama, USA

GOING TO KINSTON?


FAA INFORMATION EFFECTIVE 31 JANUARY 2019

Location

FAA Identifier: 5AL7
Lat/Long: 31-15-00.0000N / 086-10-00.0000W
31-15.000000N / 086-10.000000W
31.2500000 / -86.1666667
(estimated)
Elevation: 300 ft. / 91 m (estimated)
Variation: 01W (1995)
From city: 3 miles N of KINSTON, AL
Time zone: UTC -6 (UTC -5 during Daylight Saving Time)
Zip code: 36453

Airport Operations

Airport use: Private use. Permission required prior to landing
Activation date: 10/1999
Control tower: no
ARTCC: JACKSONVILLE CENTER
FSS: ANNISTON FLIGHT SERVICE STATION
Attendance: UNATNDD
Segmented circle: no

Airport Communications

WX ASOS at 79J (12 nm W): 134.875 (334-222-9770)
WX AWOS-3PT at EDN (14 nm E): 118.9 (334-347-3524)

Nearby radio navigation aids

VOR radial/distance  VOR name  Freq  Var
EDNr261/(13.8)ENTERPRISE VOR116.6003W
OZRr270/22.6CAIRNS VOR/DME111.2003W
HEYr257/(27.4)HANCHEY VOR110.6003W
CEWr043/36.6CRESTVIEW VORTAC115.9003E
RRSr265/37.8WIREGRASS VORTAC111.6002E

 
NDB name  Hdg/Dist  Freq  Var  ID
BOLL WEEVIL243/10.935203WBVG -... ...- --.
JUDD108/12.026402WJUY .--- ..- -.--
LOWE256/22.726903WLOR .-.. --- .-.
HANCHEY257/27.422103WHYE .... -.-- .
BLOOD189/35.036504WTOI - --- ..

Airport Services

Runway Information

Runway 18/36

Dimensions: 1800 x 60 ft. / 549 x 18 m
Surface: turf
RUNWAY 18  RUNWAY 36
Traffic pattern: leftleft

Airport Ownership and Management from official FAA records

Ownership: Privately-owned
Owner: JOHN H. HATAWAY / DOMINY HATAWAY
991 C.R. 452
KINSTON, AL 36453
Phone 334-565-9877
CELL PHONE 334-494-9345
Manager: GREGORY L. HATAWAY
1207 C.R. 452
KINSTON, AL 36453
Phone 334-565-9877
CELL PHONE 334-494-9345

Airport Operational Statistics

Aircraft based on the field: 1
Single engine airplanes: 1
    

Additional Remarks

A58-36 5 FT FENCE NORTH OF RWY.
199 FT UNLIT CELL TOWER 1 MILE NE OF RY.
RWY 18 5 FT FENCE EAST OF RWY AND 5 FT FENCE SOUTH OF RWY. RWY 36 5 FT FENCE NORTH OF RWY.

Instrument Procedures

There are no published instrument procedures at 5AL7.

Some nearby airports with instrument procedures:

79J - South Alabama Regional Airport at Bill Benton Field (12 nm W)
KEDN - Enterprise Municipal Airport (14 nm E)
0J4 - Florala Municipal Airport (15 nm SW)
33J - Geneva Municipal Airport (19 nm SE)
KLOR - Lowe Army Heliport (Fort Rucker) (22 nm E)
 
Loc | Ops | Rwys | IFR | FBO | Links
Com | Nav | Svcs | Stats | Notes
Area around 5AL7 (John H Hataway Airport)
 
Road maps at: MapQuest Bing Google
 
Aerial photo
WARNING: Photo may not be current or correct
Aerial photo of 5AL7 (John H Hataway Airport)
Photo by Arend van Beek
Photo taken 16-Feb-2009

Do you have a better or more recent aerial photo of John H Hataway Airport that you would like to share? If so, please send us your photo.

 
Sectional chart

 
Airport distance calculator
Flying to John H Hataway Airport? Find the distance to fly.

From to 5AL7

Sunrise and sunset
Times for 22-Feb-2019
 Local
(UTC-6)
 Zulu
(UTC)
Morning civil twilight05:5611:56
Sunrise06:2012:20
Sunset17:3623:36
Evening civil twilight18:0100:01

Current date and time
Zulu (UTC)  23-Feb-2019 04:44:02
Local (UTC-6)  22-Feb-2019 22:44:02
 
METAR
K79J 
13nm W 
230356Z AUTO VRB04KT 10SM OVC014 23/19 A3012 RMK AO2 SLP196 T02280194
KEDN 
14nm E 
230415Z AUTO 00000KT 10SM OVC100 20/20 A3014 RMK AO2 T01970197
K0J4 
15nm SW 
230413Z AUTO 17005KT 10SM OVC008 21/19 A3015 RMK AO2 T02110189
KSXS 
18nm NE 
230358Z AUTO 20005KT 10SM OVC100 20/19 A3012 RMK AO2 SLP199 T02020194
KLOR 
22nm E 
230358Z AUTO 00000KT 10SM OVC100 19/19 A3013 RMK AO2 SLP185 P0000 T01910189
KOZR 
23nm E 
230356Z AUTO 15003KT 10SM OVC100 20/19 A3013 RMK AO2 SLP203 T01990189
TAF
KOZR 
23nm E 
230000Z 2300/2406 15006KT 8000 BR BKN020 QNH3010INS BECMG 2303/2304 17005KT 0800 FG OVC005 510023 QNH3010INS BECMG 2315/2316 18012G18KT 9999 NSW FEW013 BKN025 WS020/18031KT 510013 QNH3007INS BECMG 2317/2318 19015G20KT 9999 SCT016 510013 QNH3002INS BECMG 2323/2324 18009KT 9999 BKN016 510013 QNH3002INS BECMG 2403/2404 18009KT 8000 BR OVC001 510203 QNH3000INS TX28/2300Z TN19/2313Z LAST NO AMDS AFT 2307 NEXT 2312
NOTAMs
Click for the latest NOTAMs
NOTAMs are issued by the DoD/FAA and will open in a separate window not controlled by AirNav.

 

 
 

Would you like to see your business listed on this page?

 If your business provides an interesting product or service to pilots, flight crews, aircraft, or users of the John H Hataway Airport, you should consider listing it here.  To start the listing process, click on the button below
 
Add a business
 

Other Pages about John H Hataway Airport

Update a link
 
Copyright © AirNav, LLC. All rights reserved. Privacy Policy  Contact